Time;durP1;ratioP1;P1;durP2;ratioP2;P2;SDS_P1;SDS_P2;PMS_P1;PMS_P2;Temp;Humidity;BMP_temperature;BMP_pressure;BME280_temperature;BME280_humidity;BME280_pressure;Samples;Min_cycle;Max_cycle;Signal;HPM_P1;HPM_P2
2023/09/01 00:00:46;;;;;;;10.00;2.57;;;14.00;99.80;;;;;;6109150;23;20159;-90
2023/09/01 00:03:12;;;;;;;7.33;2.63;;;13.80;99.90;;;;;;6107925;23;20540;-90
2023/09/01 00:05:38;;;;;;;8.77;2.40;;;13.70;99.90;;;;;;6134910;23;20187;-89
2023/09/01 00:08:05;;;;;;;5.20;2.60;;;13.70;99.90;;;;;;6108491;23;20169;-91
2023/09/01 00:10:30;;;;;;;5.70;2.40;;;13.80;99.90;;;;;;6108162;23;20172;-90
2023/09/01 00:12:57;;;;;;;7.73;2.67;;;13.80;99.90;;;;;;6107876;23;20162;-88
2023/09/01 00:15:23;;;;;;;6.57;2.40;;;13.80;99.90;;;;;;6121352;23;20182;-89
2023/09/01 00:17:49;;;;;;;4.80;2.57;;;14.10;99.90;;;;;;6113044;23;20166;-89
2023/09/01 00:20:15;;;;;;;6.03;2.50;;;13.90;99.90;;;;;;6107911;23;20158;-91
2023/09/01 00:22:40;;;;;;;5.27;2.43;;;13.80;99.90;;;;;;6107765;23;20188;-92
2023/09/01 00:25:06;;;;;;;6.23;2.63;;;15.00;99.90;;;;;;6108185;23;20519;-91
2023/09/01 00:27:33;;;;;;;8.93;3.03;;;13.90;99.90;;;;;;6120670;23;20240;-90
2023/09/01 00:29:59;;;;;;;6.83;2.37;;;13.90;99.90;;;;;;6163534;23;20193;-91
2023/09/01 00:32:25;;;;;;;4.00;2.53;;;14.00;99.90;;;;;;6163821;23;20155;-92
2023/09/01 00:34:57;;;;;;;5.53;2.67;;;14.00;99.90;;;;;;6163175;23;20231;-89
2023/09/01 00:37:25;;;;;;;8.13;2.60;;;14.10;99.90;;;;;;6163322;23;20234;-92
2023/09/01 00:39:50;;;;;;;5.63;2.50;;;14.00;99.90;;;;;;6136950;23;20200;-91
2023/09/01 00:42:16;;;;;;;5.60;2.80;;;14.50;99.90;;;;;;6136966;23;20191;-91
2023/09/01 00:44:41;;;;;;;7.17;2.40;;;14.10;99.90;;;;;;6137307;23;20244;-91
2023/09/01 00:47:08;;;;;;;9.10;2.70;;;14.20;99.90;;;;;;6137662;23;20165;-90
2023/09/01 00:49:36;;;;;;;4.60;2.47;;;14.10;99.90;;;;;;6113350;23;20232;-91
2023/09/01 00:52:02;;;;;;;7.97;2.70;;;15.20;99.90;;;;;;6137138;23;20165;-92
2023/09/01 00:54:28;;;;;;;6.23;2.23;;;14.10;99.90;;;;;;6163347;23;20192;-90
2023/09/01 00:56:54;;;;;;;7.97;2.63;;;14.20;99.90;;;;;;6137499;23;20193;-92
2023/09/01 00:59:20;;;;;;;9.70;3.00;;;14.20;99.90;;;;;;6163041;23;20156;-90
2023/09/01 01:01:47;;;;;;;8.10;2.67;;;14.10;99.90;;;;;;6112641;23;20508;-92
2023/09/01 01:04:14;;;;;;;6.23;2.53;;;14.30;99.90;;;;;;6136938;23;20593;-91
2023/09/01 01:07:00;;;;;;;8.43;3.03;;;14.80;99.90;;;;;;6137292;23;20174;-91
2023/09/01 01:09:47;;;;;;;8.73;2.83;;;14.20;99.90;;;;;;6137640;23;20199;-91
2023/09/01 01:12:23;;;;;;;8.10;2.70;;;14.30;99.90;;;;;;6162434;23;20236;-91
2023/09/01 01:14:53;;;;;;;8.97;3.10;;;14.30;99.90;;;;;;6137558;23;20201;-91
2023/09/01 01:17:19;;;;;;;6.90;2.57;;;14.70;99.90;;;;;;6112628;23;20618;-92
2023/09/01 01:20:13;;;;;;;5.00;2.30;;;14.30;99.90;;;;;;6162357;23;20224;-91
2023/09/01 01:22:43;;;;;;;7.20;2.67;;;14.40;99.90;;;;;;6177199;23;20125;-90
2023/09/01 01:25:11;;;;;;;4.07;2.30;;;14.40;99.90;;;;;;6139673;23;20244;-91
2023/09/01 01:27:37;;;;;;;5.33;2.20;;;14.40;99.90;;;;;;6160787;23;20641;-90
2023/09/01 01:30:06;;;;;;;5.97;2.40;;;14.40;99.90;;;;;;6138065;23;20169;-90
2023/09/01 01:32:33;;;;;;;7.20;2.40;;;14.40;99.90;;;;;;6136122;23;20166;-92
2023/09/01 01:35:18;;;;;;;4.80;2.33;;;14.60;99.90;;;;;;6137474;23;20259;-90
2023/09/01 01:37:58;;;;;;;4.20;2.13;;;14.80;99.90;;;;;;6138004;23;20211;-90
2023/09/01 01:40:29;;;;;;;8.67;2.90;;;14.40;99.90;;;;;;6137201;23;20145;-90
2023/09/01 01:42:59;;;;;;;4.73;2.33;;;14.30;99.90;;;;;;6137115;23;20156;-90
2023/09/01 01:45:27;;;;;;;7.10;3.00;;;15.10;99.90;;;;;;6136579;23;20491;-91
2023/09/01 01:47:53;;;;;;;5.33;2.23;;;14.40;99.90;;;;;;6137691;23;20159;-91
2023/09/01 01:50:18;;;;;;;2.87;2.17;;;14.60;99.90;;;;;;6137858;23;20307;-91
2023/09/01 01:52:44;;;;;;;5.87;2.30;;;14.40;99.90;;;;;;6136817;23;20165;-92
2023/09/01 01:55:10;;;;;;;5.43;2.17;;;14.50;99.90;;;;;;6135621;23;20206;-91
2023/09/01 01:57:38;;;;;;;5.80;2.73;;;14.50;99.90;;;;;;6137182;23;20456;-92
2023/09/01 02:00:11;;;;;;;5.33;2.63;;;14.50;99.90;;;;;;6137656;23;20157;-92
2023/09/01 02:02:37;;;;;;;8.63;3.00;;;14.50;99.90;;;;;;6136965;23;20189;-91
2023/09/01 02:05:06;;;;;;;4.27;2.20;;;14.50;99.90;;;;;;6136627;23;20184;-92
2023/09/01 02:07:32;;;;;;;5.67;2.30;;;14.50;99.90;;;;;;6135096;23;20172;-92
2023/09/01 02:09:57;;;;;;;6.33;2.20;;;14.50;99.90;;;;;;6135142;23;20167;-91
2023/09/01 02:12:23;;;;;;;5.57;2.70;;;14.50;99.90;;;;;;6135241;23;20162;-92
2023/09/01 02:14:48;;;;;;;4.57;2.50;;;14.50;99.90;;;;;;6135099;23;20336;-91
2023/09/01 02:17:14;;;;;;;6.47;2.30;;;14.40;99.90;;;;;;6137080;23;20164;-91
2023/09/01 02:19:40;;;;;;;5.63;2.93;;;14.50;99.90;;;;;;6136810;23;20167;-93
2023/09/01 02:22:05;;;;;;;5.30;2.30;;;14.60;99.90;;;;;;6110862;23;20165;-91
2023/09/01 02:24:31;;;;;;;3.23;2.20;;;14.50;99.90;;;;;;6136100;23;20182;-90
2023/09/01 02:26:57;;;;;;;4.47;2.47;;;14.60;99.90;;;;;;6136971;23;20476;-91
2023/09/01 02:29:23;;;;;;;6.07;2.97;;;14.30;99.90;;;;;;6133904;23;20165;-90
2023/09/01 02:31:48;;;;;;;7.27;2.80;;;14.50;99.90;;;;;;6135760;23;20169;-91
2023/09/01 02:34:14;;;;;;;5.00;2.30;;;14.40;99.90;;;;;;6134011;23;20268;-92
2023/09/01 02:36:40;;;;;;;5.57;2.40;;;14.40;99.90;;;;;;6134390;23;20164;-91
2023/09/01 02:39:06;;;;;;;7.10;2.53;;;14.50;99.90;;;;;;6134996;23;20176;-90
2023/09/01 02:41:33;;;;;;;6.80;2.40;;;14.50;99.90;;;;;;6134540;23;20161;-90
2023/09/01 02:43:59;;;;;;;8.00;2.50;;;14.40;99.90;;;;;;6161317;23;20232;-91
2023/09/01 02:46:24;;;;;;;4.53;2.50;;;14.40;99.90;;;;;;6135163;23;20181;-91
2023/09/01 02:48:51;;;;;;;4.70;2.50;;;14.50;99.90;;;;;;6135271;23;20165;-90
2023/09/01 02:51:17;;;;;;;5.47;2.57;;;14.50;99.90;;;;;;6134684;23;20161;-91
2023/09/01 02:53:42;;;;;;;5.20;2.50;;;14.40;99.90;;;;;;6161072;23;20270;-91
2023/09/01 02:56:08;;;;;;;6.53;2.20;;;14.80;99.90;;;;;;6134557;23;20181;-91
2023/09/01 02:58:35;;;;;;;4.77;2.23;;;14.40;99.90;;;;;;6135067;23;20162;-90
2023/09/01 03:01:08;;;;;;;4.37;2.10;;;14.60;99.90;;;;;;6134110;23;20164;-92
2023/09/01 03:03:39;;;;;;;5.70;2.53;;;14.40;99.90;;;;;;6134828;23;20187;-91
2023/09/01 03:06:05;;;;;;;4.50;2.40;;;14.40;99.90;;;;;;6135261;23;20185;-91
2023/09/01 03:08:32;;;;;;;2.63;2.03;;;14.40;99.90;;;;;;6161183;23;20213;-91
2023/09/01 03:10:57;;;;;;;5.00;2.33;;;15.10;99.90;;;;;;6134501;23;20188;-91
2023/09/01 03:13:24;;;;;;;4.07;2.10;;;14.50;99.90;;;;;;6134637;23;20185;-90
2023/09/01 03:15:54;;;;;;;3.53;2.13;;;14.40;99.90;;;;;;6134834;23;20263;-91
2023/09/01 03:18:20;;;;;;;4.20;2.30;;;14.40;99.90;;;;;;6135720;23;20173;-92
2023/09/01 03:20:45;;;;;;;3.97;2.30;;;14.50;99.90;;;;;;6135990;23;20162;-92
2023/09/01 03:23:11;;;;;;;5.27;2.40;;;14.70;99.90;;;;;;6134532;23;20170;-92
2023/09/01 03:25:38;;;;;;;2.70;2.23;;;14.40;99.90;;;;;;6135776;23;20178;-92
2023/09/01 03:28:03;;;;;;;3.47;2.00;;;14.60;99.90;;;;;;6137233;23;20177;-92
2023/09/01 03:30:29;;;;;;;3.33;1.90;;;14.50;99.90;;;;;;6136863;23;20624;-91
2023/09/01 03:32:54;;;;;;;6.07;2.33;;;14.50;99.90;;;;;;6136788;23;20168;-91
2023/09/01 03:35:20;;;;;;;4.10;2.27;;;14.60;99.90;;;;;;6163552;23;20170;-92
2023/09/01 03:37:46;;;;;;;3.67;2.23;;;14.60;99.90;;;;;;6137472;23;20215;-92
2023/09/01 03:40:11;;;;;;;4.00;1.97;;;14.50;99.90;;;;;;6137587;23;20157;-90
2023/09/01 03:42:38;;;;;;;4.20;2.17;;;14.60;99.90;;;;;;6137932;23;20158;-90
2023/09/01 03:45:04;;;;;;;2.40;1.70;;;14.60;99.90;;;;;;6136765;23;20262;-92
2023/09/01 03:47:30;;;;;;;4.60;2.30;;;14.60;99.90;;;;;;6137923;23;20315;-92
2023/09/01 03:49:56;;;;;;;7.43;2.60;;;14.60;99.90;;;;;;6137045;23;20599;-90
2023/09/01 03:52:21;;;;;;;5.50;2.30;;;14.60;99.90;;;;;;6162770;23;20229;-91
2023/09/01 03:54:47;;;;;;;6.10;2.20;;;14.60;99.90;;;;;;6136898;23;20271;-91
2023/09/01 03:57:15;;;;;;;3.67;2.23;;;14.70;99.90;;;;;;6136835;23;20171;-91
2023/09/01 03:59:41;;;;;;;2.60;1.93;;;15.20;99.90;;;;;;6163390;23;20158;-91
2023/09/01 04:02:07;;;;;;;5.03;2.17;;;14.90;99.90;;;;;;6136585;23;20237;-92
2023/09/01 04:04:32;;;;;;;4.90;2.03;;;14.60;99.90;;;;;;6136975;23;20181;-91
2023/09/01 04:06:58;;;;;;;4.70;1.90;;;14.50;99.90;;;;;;6113032;23;20200;-91
2023/09/01 04:09:23;;;;;;;2.80;2.00;;;14.60;99.90;;;;;;6136581;23;20168;-92
2023/09/01 04:11:49;;;;;;;5.23;2.13;;;14.60;99.90;;;;;;6137082;23;20172;-92
2023/09/01 04:14:15;;;;;;;5.57;2.20;;;14.50;99.90;;;;;;6137740;23;20654;-92
2023/09/01 04:16:41;;;;;;;4.63;1.80;;;15.20;99.90;;;;;;6163310;23;20150;-91
2023/09/01 04:19:06;;;;;;;5.07;2.33;;;15.10;99.90;;;;;;6136677;23;20541;-90
2023/09/01 04:21:33;;;;;;;4.77;2.43;;;14.60;99.90;;;;;;6136808;23;20161;-92
2023/09/01 04:23:59;;;;;;;5.90;2.03;;;14.70;99.90;;;;;;6136558;23;20169;-91
2023/09/01 04:26:25;;;;;;;3.27;2.13;;;14.60;99.90;;;;;;6135837;23;20641;-91
2023/09/01 04:28:53;;;;;;;4.80;2.10;;;14.70;99.90;;;;;;6138145;23;20187;-89
2023/09/01 04:31:26;;;;;;;5.13;2.07;;;14.60;99.90;;;;;;6162894;23;20158;-91
2023/09/01 04:33:51;;;;;;;4.80;2.50;;;14.70;99.90;;;;;;6168651;23;20177;-91
2023/09/01 04:36:17;;;;;;;3.80;2.23;;;14.60;99.90;;;;;;6161710;23;20610;-92
2023/09/01 04:38:43;;;;;;;7.20;2.07;;;14.70;99.90;;;;;;6160362;23;20483;-91
2023/09/01 04:41:08;;;;;;;8.97;2.50;;;14.80;99.90;;;;;;6134327;23;20222;-90
2023/09/01 04:43:34;;;;;;;3.50;2.20;;;14.70;99.90;;;;;;6133677;23;20231;-89
2023/09/01 04:46:00;;;;;;;5.30;2.10;;;14.70;99.90;;;;;;6116903;23;20189;-90
2023/09/01 04:48:26;;;;;;;3.13;2.30;;;14.70;99.90;;;;;;6145497;23;20171;-91
2023/09/01 04:50:52;;;;;;;4.70;2.17;;;15.00;99.90;;;;;;6140867;23;20185;-92
2023/09/01 04:53:18;;;;;;;3.20;1.93;;;14.50;99.90;;;;;;6136180;23;20405;-91
2023/09/01 04:55:45;;;;;;;3.90;2.10;;;14.70;99.90;;;;;;6135792;23;20178;-91
2023/09/01 04:58:11;;;;;;;3.80;2.20;;;14.60;99.90;;;;;;6149279;23;20154;-90
2023/09/01 05:00:37;;;;;;;4.10;2.13;;;14.70;99.90;;;;;;6116042;23;20268;-87
2023/09/01 05:03:03;;;;;;;5.77;2.10;;;14.70;99.90;;;;;;6135491;23;20571;-90
2023/09/01 05:05:28;;;;;;;3.47;1.93;;;14.60;99.90;;;;;;6135527;23;20185;-91
2023/09/01 05:07:54;;;;;;;7.10;2.07;;;14.60;99.90;;;;;;6135908;23;20164;-92
2023/09/01 05:10:20;;;;;;;5.20;2.40;;;14.60;99.90;;;;;;6135577;23;20249;-90
2023/09/01 05:12:46;;;;;;;2.60;1.87;;;14.60;99.90;;;;;;6136089;23;20161;-90
2023/09/01 05:15:12;;;;;;;4.03;2.50;;;14.90;99.90;;;;;;6135965;23;20773;-89
2023/09/01 05:17:38;;;;;;;5.73;2.30;;;14.70;99.90;;;;;;6163378;23;20228;-88
2023/09/01 05:20:07;;;;;;;4.13;1.90;;;14.70;99.90;;;;;;6163370;23;20161;-88
2023/09/01 05:22:33;;;;;;;5.60;2.50;;;14.70;99.90;;;;;;6161686;23;20157;-91
2023/09/01 05:25:00;;;;;;;2.77;2.07;;;15.70;99.90;;;;;;6162449;23;20181;-89
2023/09/01 05:27:26;;;;;;;3.43;2.20;;;14.80;99.90;;;;;;6135805;23;20177;-90
2023/09/01 05:29:51;;;;;;;3.80;1.90;;;14.80;99.90;;;;;;6162319;23;20632;-89
2023/09/01 05:32:19;;;;;;;3.87;2.17;;;15.30;99.90;;;;;;6136309;23;20168;-91
2023/09/01 05:34:45;;;;;;;3.53;2.47;;;15.00;99.90;;;;;;6163422;23;20185;-89
2023/09/01 05:37:12;;;;;;;3.23;2.33;;;15.40;99.90;;;;;;6135153;23;20229;-89
2023/09/01 05:39:39;;;;;;;4.63;2.07;;;14.90;99.90;;;;;;6135578;23;20608;-90
2023/09/01 05:42:07;;;;;;;5.17;2.00;;;14.80;99.90;;;;;;6135780;23;20180;-90
2023/09/01 05:44:35;;;;;;;3.30;2.10;;;14.80;99.90;;;;;;6162252;23;20634;-89
2023/09/01 05:47:00;;;;;;;3.27;2.17;;;14.90;99.90;;;;;;6134685;23;20162;-89
2023/09/01 05:49:29;;;;;;;3.23;2.00;;;14.90;99.90;;;;;;6135143;23;20668;-89
2023/09/01 05:51:55;;;;;;;5.00;2.00;;;14.90;99.90;;;;;;6135412;23;20168;-91
2023/09/01 05:54:20;;;;;;;4.00;2.20;;;14.90;99.90;;;;;;6160996;23;20189;-91
2023/09/01 05:56:47;;;;;;;3.97;2.20;;;15.00;99.90;;;;;;6135494;23;20259;-90
2023/09/01 05:59:13;;;;;;;3.13;2.07;;;15.00;99.90;;;;;;6161668;23;20153;-88
2023/09/01 06:01:39;;;;;;;7.07;2.00;;;15.00;99.90;;;;;;6162471;23;20240;-90
2023/09/01 06:04:05;;;;;;;2.37;1.73;;;15.60;99.90;;;;;;6135756;23;20158;-90
2023/09/01 06:06:31;;;;;;;4.60;2.13;;;15.00;99.90;;;;;;6135376;23;20161;-90
2023/09/01 06:09:07;;;;;;;4.80;2.00;;;15.00;99.90;;;;;;6135379;23;20158;-90
2023/09/01 06:11:35;;;;;;;2.57;1.97;;;15.10;99.90;;;;;;6130427;23;20524;-90
2023/09/01 06:14:01;;;;;;;4.63;2.03;;;15.10;99.90;;;;;;6136143;23;20204;-87
2023/09/01 06:16:27;;;;;;;2.63;1.80;;;15.10;99.90;;;;;;6161549;23;20599;-89
2023/09/01 06:18:55;;;;;;;2.97;2.00;;;15.10;99.90;;;;;;6161598;23;20154;-90
2023/09/01 06:21:21;;;;;;;2.43;1.93;;;15.10;99.90;;;;;;6162275;23;20161;-90
2023/09/01 06:23:48;;;;;;;1.90;1.53;;;15.90;99.90;;;;;;6135671;23;20162;-89
2023/09/01 06:26:17;;;;;;;2.93;1.97;;;15.20;99.90;;;;;;6135805;23;20210;-89
2023/09/01 06:28:43;;;;;;;2.27;1.43;;;15.20;99.90;;;;;;6135874;23;20583;-89
2023/09/01 06:31:09;;;;;;;5.00;2.10;;;15.40;99.90;;;;;;6135063;23;20158;-90
2023/09/01 06:33:36;;;;;;;3.63;1.63;;;15.40;99.90;;;;;;6160648;23;20207;-90
2023/09/01 06:36:04;;;;;;;1.93;1.40;;;16.40;99.90;;;;;;6134931;23;20257;-90
2023/09/01 06:38:29;;;;;;;2.63;1.77;;;15.20;99.90;;;;;;6115511;23;20167;-87
2023/09/01 06:40:56;;;;;;;3.57;2.00;;;16.20;99.90;;;;;;6168859;23;20162;-88
2023/09/01 06:43:21;;;;;;;3.37;1.80;;;15.30;99.90;;;;;;6183336;23;20146;-84
2023/09/01 06:45:47;;;;;;;4.00;2.20;;;15.40;99.90;;;;;;6184084;23;20185;-89
2023/09/01 06:48:13;;;;;;;8.07;2.40;;;15.90;99.90;;;;;;6140383;23;20496;-90
2023/09/01 06:50:38;;;;;;;2.93;1.93;;;15.40;99.90;;;;;;6136230;23;20504;-89
2023/09/01 06:53:06;;;;;;;5.10;2.20;;;16.40;99.90;;;;;;6136326;23;20196;-88
2023/09/01 06:55:31;;;;;;;3.43;2.07;;;15.50;99.90;;;;;;6112946;23;20516;-91
2023/09/01 06:57:57;;;;;;;3.60;1.90;;;15.70;99.90;;;;;;6137943;23;20215;-89
2023/09/01 07:00:24;;;;;;;4.03;1.97;;;16.00;99.90;;;;;;6135629;23;20157;-89
2023/09/01 07:02:50;;;;;;;4.30;1.70;;;15.60;99.90;;;;;;6163224;23;20232;-91
2023/09/01 07:05:17;;;;;;;2.43;1.90;;;17.20;99.90;;;;;;6136279;23;20181;-89
2023/09/01 07:07:43;;;;;;;2.43;1.83;;;15.60;99.90;;;;;;6164226;23;20165;-89
2023/09/01 07:10:09;;;;;;;4.93;1.90;;;15.80;99.90;;;;;;6142877;23;20213;-90
2023/09/01 07:12:35;;;;;;;5.63;1.60;;;15.60;99.90;;;;;;6140886;23;20241;-89
2023/09/01 07:15:02;;;;;;;2.47;1.90;;;16.10;99.90;;;;;;6137574;23;20193;-91
2023/09/01 07:17:28;;;;;;;3.10;1.70;;;16.20;99.90;;;;;;6140048;23;20284;-89
2023/09/01 07:19:53;;;;;;;4.60;1.60;;;15.90;99.90;;;;;;6164766;23;20161;-92
2023/09/01 07:22:19;;;;;;;2.47;1.50;;;15.90;99.90;;;;;;6136738;23;20169;-90
2023/09/01 07:24:45;;;;;;;2.33;1.47;;;15.80;99.90;;;;;;6137906;23;20245;-89
2023/09/01 07:27:10;;;;;;;3.00;1.50;;;15.70;99.90;;;;;;6154932;23;20228;-90
2023/09/01 07:29:36;;;;;;;4.33;1.53;;;15.80;99.90;;;;;;6108494;23;20162;-90
2023/09/01 07:32:03;;;;;;;2.23;1.73;;;15.80;99.90;;;;;;6108534;23;20209;-91
2023/09/01 07:34:28;;;;;;;2.27;1.40;;;15.80;99.90;;;;;;6084392;23;20264;-90
2023/09/01 07:36:57;;;;;;;1.57;1.47;;;15.80;99.90;;;;;;6133628;23;20182;-90
2023/09/01 07:39:22;;;;;;;2.57;1.47;;;15.80;99.90;;;;;;6134874;23;20154;-91
2023/09/01 07:41:48;;;;;;;2.97;1.70;;;15.70;99.90;;;;;;6108087;23;20244;-89
2023/09/01 07:44:16;;;;;;;4.00;1.60;;;15.70;99.90;;;;;;6112033;23;20257;-91
2023/09/01 07:46:43;;;;;;;3.10;1.47;;;15.80;99.90;;;;;;6136420;23;20154;-89
2023/09/01 07:49:09;;;;;;;2.77;1.50;;;15.80;99.90;;;;;;6136213;23;20158;-90
2023/09/01 07:51:35;;;;;;;4.17;1.50;;;15.80;99.90;;;;;;6108691;23;20169;-90
2023/09/01 07:54:00;;;;;;;2.93;1.40;;;15.80;99.90;;;;;;6107234;23;20185;-92
2023/09/01 07:56:26;;;;;;;4.67;1.57;;;15.80;99.90;;;;;;6108109;23;20162;-90
2023/09/01 07:58:52;;;;;;;5.57;1.67;;;15.80;99.90;;;;;;6134380;23;20237;-91
2023/09/01 08:01:17;;;;;;;12.43;2.07;;;15.60;99.90;;;;;;6107285;23;20165;-90
2023/09/01 08:03:43;;;;;;;10.60;2.10;;;15.80;99.90;;;;;;6109405;23;20562;-92
2023/09/01 08:06:09;;;;;;;9.33;2.57;;;16.50;99.90;;;;;;6109384;23;20185;-93
2023/09/01 08:08:34;;;;;;;4.87;2.70;;;16.00;99.90;;;;;;6107947;23;20188;-91
2023/09/01 08:11:00;;;;;;;6.43;2.10;;;16.20;99.90;;;;;;6107215;23;20197;-92
2023/09/01 08:13:26;;;;;;;5.30;2.33;;;15.90;99.90;;;;;;6106857;23;20192;-92
2023/09/01 08:15:52;;;;;;;3.70;1.87;;;15.40;99.90;;;;;;6133349;23;20629;-92
2023/09/01 08:18:18;;;;;;;4.00;1.80;;;15.40;99.90;;;;;;6107489;23;20166;-90
2023/09/01 08:20:43;;;;;;;2.87;1.80;;;15.20;99.90;;;;;;6107881;23;20158;-92
2023/09/01 08:23:10;;;;;;;5.03;1.90;;;15.90;99.90;;;;;;6132953;23;20158;-91
2023/09/01 08:25:36;;;;;;;6.43;1.90;;;15.50;99.90;;;;;;6133279;23;20170;-92
2023/09/01 08:28:06;;;;;;;3.87;1.73;;;15.50;99.90;;;;;;6130245;23;20170;-91
2023/09/01 08:30:31;;;;;;;2.37;1.40;;;15.50;99.90;;;;;;6124388;23;20170;-91
2023/09/01 08:32:57;;;;;;;3.20;1.63;;;15.60;99.90;;;;;;6138077;23;20166;-90
2023/09/01 08:35:23;;;;;;;2.10;1.53;;;15.60;99.90;;;;;;6133508;23;20182;-91
2023/09/01 08:37:48;;;;;;;5.40;1.60;;;16.00;99.90;;;;;;6107100;23;20517;-92
2023/09/01 08:40:14;;;;;;;2.10;1.30;;;15.60;99.90;;;;;;6107049;23;20622;-93
2023/09/01 08:42:48;;;;;;;3.83;1.40;;;16.30;99.90;;;;;;6106215;23;20158;-92
2023/09/01 08:45:18;;;;;;;3.43;1.37;;;16.00;99.90;;;;;;6107858;23;20189;-89
2023/09/01 08:47:46;;;;;;;3.90;1.63;;;15.70;99.90;;;;;;6132177;23;20134;-90
2023/09/01 08:50:13;;;;;;;4.30;1.47;;;15.90;99.90;;;;;;6132462;23;20241;-94
2023/09/01 08:52:45;;;;;;;2.93;1.50;;;15.70;99.90;;;;;;6107014;23;20175;-88
2023/09/01 08:55:13;;;;;;;2.83;1.53;;;15.80;99.90;;;;;;6133356;23;20182;-92
2023/09/01 08:57:39;;;;;;;5.27;1.63;;;15.80;99.90;;;;;;6108707;23;20166;-93
2023/09/01 09:00:09;;;;;;;19.40;2.27;;;17.00;99.90;;;;;;6107250;23;20241;-92
2023/09/01 09:02:45;;;;;;;3.23;1.23;;;15.70;99.90;;;;;;6107707;23;20181;-93
2023/09/01 09:05:14;;;;;;;4.30;1.23;;;16.70;99.90;;;;;;6107095;23;20240;-91
2023/09/01 09:07:41;;;;;;;3.10;1.23;;;15.80;99.90;;;;;;6108831;23;20249;-91
2023/09/01 09:10:08;;;;;;;5.67;1.20;;;17.10;99.90;;;;;;6105994;23;20241;-90
2023/09/01 09:12:41;;;;;;;3.00;1.03;;;15.90;99.90;;;;;;6131856;23;20161;-92
2023/09/01 09:15:08;;;;;;;3.17;1.20;;;16.00;99.90;;;;;;6107015;23;20194;-93
2023/09/01 09:17:46;;;;;;;2.07;0.83;;;16.00;99.90;;;;;;6107880;23;20162;-90
2023/09/01 09:20:18;;;;;;;2.13;1.00;;;17.10;99.90;;;;;;6107810;23;20158;-89
2023/09/01 09:22:53;;;;;;;2.10;1.30;;;16.00;99.90;;;;;;6105966;23;20504;-89
2023/09/01 09:25:31;;;;;;;1.63;1.10;;;16.00;99.90;;;;;;6108067;23;20190;-90
2023/09/01 09:27:59;;;;;;;1.20;1.10;;;16.10;99.90;;;;;;6124547;23;20184;-94
2023/09/01 09:30:25;;;;;;;5.13;1.97;;;16.10;99.90;;;;;;6112779;23;20184;-93
2023/09/01 09:33:05;;;;;;;7.57;1.90;;;16.20;99.90;;;;;;6137498;23;20162;-93
2023/09/01 09:35:34;;;;;;;1.97;1.40;;;16.00;99.90;;;;;;6137512;23;20189;-94
2023/09/01 09:38:00;;;;;;;2.77;1.33;;;16.60;99.90;;;;;;6136349;23;20158;-94
2023/09/01 09:40:26;;;;;;;2.70;1.47;;;16.70;99.90;;;;;;6137385;23;20162;-93
2023/09/01 09:42:52;;;;;;;3.50;1.60;;;16.10;99.90;;;;;;6135587;23;20170;-93
2023/09/01 09:45:28;;;;;;;3.43;1.53;;;16.50;99.90;;;;;;6162252;23;20503;-93
2023/09/01 09:47:56;;;;;;;4.07;1.30;;;16.20;99.90;;;;;;6135328;23;20161;-92
2023/09/01 09:50:24;;;;;;;6.43;2.27;;;16.80;99.90;;;;;;6136279;23;20170;-90
2023/09/01 09:52:56;;;;;;;2.83;1.47;;;16.20;99.90;;;;;;6142035;23;20145;-91
2023/09/01 09:55:27;;;;;;;1.87;1.20;;;16.30;99.90;;;;;;6140244;23;20217;-93
2023/09/01 09:58:04;;;;;;;2.47;1.23;;;16.30;99.90;;;;;;6137391;23;20185;-90
2023/09/01 10:00:45;;;;;;;2.50;1.00;;;16.30;99.90;;;;;;6137593;23;20157;-91
2023/09/01 10:03:11;;;;;;;0.80;0.80;;;16.30;99.90;;;;;;6163875;23;20471;-92
2023/09/01 10:05:37;;;;;;;2.17;1.20;;;16.30;99.90;;;;;;6165045;23;20179;-87
2023/09/01 10:08:05;;;;;;;1.30;0.90;;;16.60;99.90;;;;;;6135560;23;20184;-89
2023/09/01 10:10:33;;;;;;;2.33;0.90;;;16.60;99.90;;;;;;6134359;23;20166;-88
2023/09/01 10:13:02;;;;;;;1.33;1.00;;;16.70;99.90;;;;;;6159796;23;20153;-90
2023/09/01 10:15:28;;;;;;;1.40;1.30;;;16.90;99.90;;;;;;6109092;23;20197;-87
2023/09/01 10:17:58;;;;;;;1.40;1.20;;;17.10;99.90;;;;;;6159794;23;20153;-87
2023/09/01 10:20:23;;;;;;;3.13;1.63;;;17.30;99.90;;;;;;6160305;23;20181;-90
2023/09/01 10:22:49;;;;;;;4.27;1.90;;;17.90;99.90;;;;;;6134273;23;20162;-91
2023/09/01 10:25:17;;;;;;;2.97;2.00;;;17.60;99.90;;;;;;6134672;23;20239;-92
2023/09/01 10:28:04;;;;;;;3.73;2.07;;;18.90;99.90;;;;;;6138863;23;20177;-91
2023/09/01 10:30:32;;;;;;;2.80;2.50;;;17.70;99.90;;;;;;6161936;23;20160;-92
2023/09/01 10:33:17;;;;;;;3.13;2.63;;;17.60;99.90;;;;;;6135905;23;20346;-87
2023/09/01 10:35:50;;;;;;;2.63;2.43;;;17.60;99.90;;;;;;6135795;23;20185;-91
2023/09/01 10:38:34;;;;;;;3.87;2.57;;;17.70;99.90;;;;;;6161960;23;20140;-91
2023/09/01 10:41:00;;;;;;;6.20;2.80;;;17.60;99.90;;;;;;6136728;23;20217;-91
2023/09/01 10:43:37;;;;;;;4.70;3.20;;;17.60;99.90;;;;;;6133637;23;20181;-86
2023/09/01 10:46:29;;;;;;;3.87;2.60;;;17.60;99.90;;;;;;6132908;23;20177;-86
2023/09/01 10:48:59;;;;;;;4.77;2.37;;;18.20;99.90;;;;;;6129518;23;20162;-91
2023/09/01 10:51:39;;;;;;;4.17;2.40;;;17.60;99.90;;;;;;6133235;23;20296;-88
2023/09/01 10:54:14;;;;;;;4.60;2.00;;;17.60;99.90;;;;;;6158270;23;20217;-88
2023/09/01 10:57:03;;;;;;;5.50;2.40;;;18.40;99.90;;;;;;6133271;23;20161;-92
2023/09/01 10:59:36;;;;;;;3.77;2.00;;;18.30;99.90;;;;;;6133790;23;20165;-87
2023/09/01 11:02:19;;;;;;;2.23;1.97;;;17.60;99.90;;;;;;6132649;23;20153;-87
2023/09/01 11:04:46;;;;;;;3.93;1.90;;;17.50;99.90;;;;;;6133280;23;20182;-89
2023/09/01 11:07:13;;;;;;;3.93;1.93;;;17.50;99.90;;;;;;6132901;23;20257;-88
2023/09/01 11:09:44;;;;;;;3.07;1.73;;;18.20;99.90;;;;;;6133448;23;20653;-87
2023/09/01 11:12:12;;;;;;;5.37;2.03;;;17.50;99.90;;;;;;6132789;23;20169;-90
2023/09/01 11:14:51;;;;;;;4.07;1.70;;;17.60;99.90;;;;;;6134388;23;20197;-89
2023/09/01 11:17:30;;;;;;;4.53;1.87;;;18.30;99.90;;;;;;6133314;23;20154;-89
2023/09/01 11:19:56;;;;;;;1.60;1.37;;;18.30;99.90;;;;;;6158762;23;20563;-93
2023/09/01 11:22:22;;;;;;;1.97;1.73;;;18.60;99.90;;;;;;6133512;23;20197;-89
2023/09/01 11:24:47;;;;;;;3.00;1.53;;;19.20;99.90;;;;;;6132246;23;20186;-89
2023/09/01 11:27:13;;;;;;;3.23;2.00;;;19.20;99.90;;;;;;6132056;23;20645;-87
2023/09/01 11:29:39;;;;;;;3.50;1.90;;;17.80;99.90;;;;;;6133006;23;20162;-88
2023/09/01 11:32:05;;;;;;;4.53;1.83;;;17.90;99.90;;;;;;6131919;23;20189;-91
2023/09/01 11:34:38;;;;;;;3.73;2.20;;;18.00;99.90;;;;;;6158027;23;20193;-89
2023/09/01 11:37:03;;;;;;;2.97;1.93;;;18.10;99.90;;;;;;6132609;23;20232;-88
2023/09/01 11:39:29;;;;;;;5.70;2.07;;;18.50;99.90;;;;;;6132814;23;20654;-93
2023/09/01 11:41:55;;;;;;;2.53;2.00;;;18.40;99.90;;;;;;6132832;23;20595;-88
2023/09/01 11:44:20;;;;;;;4.40;2.20;;;18.40;99.90;;;;;;6132350;23;20169;-91
2023/09/01 11:46:46;;;;;;;4.03;2.50;;;18.50;99.90;;;;;;6134163;23;20161;-94
2023/09/01 11:49:16;;;;;;;4.73;2.63;;;20.10;99.90;;;;;;6162675;23;20216;-93
2023/09/01 11:51:42;;;;;;;5.27;3.30;;;18.50;99.90;;;;;;6161791;23;20172;-90
2023/09/01 11:54:09;;;;;;;4.80;2.97;;;18.60;99.90;;;;;;6136265;23;20189;-90
2023/09/01 11:56:35;;;;;;;4.57;3.10;;;19.10;99.90;;;;;;6161343;23;20184;-93
2023/09/01 11:59:00;;;;;;;4.83;3.30;;;18.70;99.90;;;;;;6136488;23;20162;-93
2023/09/01 12:01:35;;;;;;;6.80;2.97;;;18.90;99.90;;;;;;6135560;23;20210;-94
2023/09/01 12:04:08;;;;;;;2.83;2.53;;;19.70;99.90;;;;;;6162839;23;20138;-92
2023/09/01 12:06:39;;;;;;;5.77;2.50;;;18.80;99.90;;;;;;6136509;23;20161;-91
2023/09/01 12:09:11;;;;;;;7.10;2.63;;;18.90;99.90;;;;;;6138686;23;20166;-90
2023/09/01 12:11:55;;;;;;;2.90;2.60;;;18.80;99.90;;;;;;6140774;23;20197;-89
2023/09/01 12:14:29;;;;;;;4.13;2.20;;;18.90;99.90;;;;;;6144644;23;20186;-89
2023/09/01 12:16:55;;;;;;;2.47;2.00;;;20.10;99.90;;;;;;6134567;23;20248;-89
2023/09/01 12:19:25;;;;;;;2.63;2.30;;;19.00;99.90;;;;;;6136077;23;20158;-89
2023/09/01 12:21:52;;;;;;;2.70;2.50;;;20.40;99.90;;;;;;6160369;23;20164;-91
2023/09/01 12:24:18;;;;;;;4.10;2.57;;;19.10;99.90;;;;;;6162309;23;20482;-92
2023/09/01 12:26:43;;;;;;;4.90;2.93;;;19.20;99.90;;;;;;6106575;23;20189;-86
2023/09/01 12:29:09;;;;;;;4.77;2.77;;;19.10;99.90;;;;;;6105406;23;20169;-90
2023/09/01 12:31:34;;;;;;;2.40;2.20;;;19.10;99.90;;;;;;6107129;23;20213;-91
2023/09/01 12:34:00;;;;;;;4.47;1.67;;;19.10;99.90;;;;;;6105083;23;20221;-90
2023/09/01 12:36:26;;;;;;;3.23;1.50;;;19.10;99.90;;;;;;6106048;23;20265;-91
2023/09/01 12:38:52;;;;;;;2.63;1.60;;;19.70;99.90;;;;;;6140310;23;20145;-89
2023/09/01 12:41:18;;;;;;;1.20;0.87;;;19.10;99.90;;;;;;6130302;23;20162;-84
2023/09/01 12:43:43;;;;;;;1.57;0.63;;;18.90;99.90;;;;;;6130326;23;20154;-83
2023/09/01 12:46:09;;;;;;;0.47;0.47;;;19.00;99.90;;;;;;6106668;23;20226;-87
2023/09/01 12:48:35;;;;;;;0.57;0.50;;;19.00;99.90;;;;;;6130447;23;20146;-88